Time;durP1;ratioP1;P1;durP2;ratioP2;P2;SDS_P1;SDS_P2;PMS_P1;PMS_P2;Temp;Humidity;BMP_temperature;BMP_pressure;BME280_temperature;BME280_humidity;BME280_pressure;Samples;Min_cycle;Max_cycle;Signal;HPM_P1;HPM_P2
2023/03/04 00:02:08;;;;;;;5.93;4.37;;;;;;;17.12;51.21;100962.34;5113175;28;20812;-59
2023/03/04 00:04:34;;;;;;;8.07;4.97;;;;;;;17.13;51.43;100961.16;5111239;28;20706;-59
2023/03/04 00:06:59;;;;;;;5.77;4.40;;;;;;;17.15;51.42;100973.03;5112800;28;20612;-59
2023/03/04 00:09:24;;;;;;;8.67;5.20;;;;;;;17.12;51.74;100968.06;5113175;28;20166;-59
2023/03/04 00:11:50;;;;;;;5.30;3.80;;;;;;;17.10;51.34;100970.41;5111920;28;20227;-59
2023/03/04 00:14:15;;;;;;;7.53;4.97;;;;;;;17.15;51.37;100969.38;5112466;28;20178;-59
2023/03/04 00:16:41;;;;;;;8.27;4.67;;;;;;;17.13;51.30;100975.44;5111916;28;20169;-59
2023/03/04 00:19:06;;;;;;;6.70;4.67;;;;;;;17.12;51.48;100972.91;5112617;28;20278;-59
2023/03/04 00:21:31;;;;;;;6.73;4.60;;;;;;;17.08;51.57;100966.25;5112680;28;20939;-59
2023/03/04 00:23:57;;;;;;;7.17;4.67;;;;;;;17.09;51.56;100968.75;5093502;28;20189;-59
2023/03/04 00:26:22;;;;;;;6.57;4.43;;;;;;;17.09;51.44;100968.75;5115149;27;20166;-59
2023/03/04 00:28:48;;;;;;;8.03;5.27;;;;;;;17.11;51.50;100965.56;5111636;28;20235;-59
2023/03/04 00:31:13;;;;;;;5.10;3.90;;;;;;;17.07;51.49;100962.59;5112498;28;20605;-59
2023/03/04 00:33:39;;;;;;;6.87;4.80;;;;;;;17.05;51.60;100967.78;5112709;28;20169;-60
2023/03/04 00:36:04;;;;;;;7.30;4.97;;;;;;;17.00;51.74;100965.19;5111604;28;20188;-59
2023/03/04 00:38:30;;;;;;;5.50;4.20;;;;;;;17.03;51.56;100970.19;5112674;28;20212;-60
2023/03/04 00:40:55;;;;;;;5.93;4.03;;;;;;;17.06;51.37;100963.75;5111630;28;20180;-60
2023/03/04 00:43:21;;;;;;;6.23;4.37;;;;;;;17.18;51.39;100966.63;5112289;28;20176;-59
2023/03/04 00:45:46;;;;;;;6.17;4.60;;;;;;;17.13;51.32;100966.88;5112169;28;20239;-60
2023/03/04 00:48:12;;;;;;;5.00;3.70;;;;;;;17.11;51.37;100977.78;5111400;28;20239;-59
2023/03/04 00:50:37;;;;;;;6.20;4.43;;;;;;;17.12;51.16;100976.63;5111757;28;20168;-59
2023/03/04 00:53:03;;;;;;;6.80;3.83;;;;;;;17.13;51.15;100969.72;5113987;27;20186;-59
2023/03/04 00:55:28;;;;;;;7.07;4.80;;;;;;;17.10;51.23;100970.41;5112169;28;20245;-60
2023/03/04 00:57:54;;;;;;;6.10;3.87;;;;;;;17.12;51.18;100970.91;5097166;28;20190;-59
2023/03/04 01:00:20;;;;;;;5.67;4.20;;;;;;;17.14;51.34;100971.38;5111224;28;20190;-60
2023/03/04 01:02:45;;;;;;;6.10;4.70;;;;;;;17.10;51.54;100973.28;5112288;28;20258;-60
2023/03/04 01:05:11;;;;;;;7.53;5.00;;;;;;;17.11;51.33;100972.06;5101457;28;20204;-60
2023/03/04 01:07:36;;;;;;;6.40;4.23;;;;;;;17.15;51.42;100972.22;5090699;28;20253;-60
2023/03/04 01:10:02;;;;;;;6.20;4.27;;;;;;;17.17;50.91;100973.53;5072083;28;20205;-59
2023/03/04 01:12:27;;;;;;;6.83;4.23;;;;;;;17.18;50.90;100978.03;5090767;28;20167;-59
2023/03/04 01:14:53;;;;;;;5.77;4.03;;;;;;;17.17;51.28;100979.25;5090404;28;20857;-59
2023/03/04 01:17:18;;;;;;;6.07;4.37;;;;;;;17.09;51.34;100980.16;5096466;28;20228;-59
2023/03/04 01:19:44;;;;;;;4.80;3.53;;;;;;;17.05;51.48;100978.41;5092491;28;20186;-60
2023/03/04 01:22:11;;;;;;;5.43;4.30;;;;;;;17.08;51.50;100974.81;5111062;28;20219;-60
2023/03/04 01:24:36;;;;;;;6.30;3.80;;;;;;;17.06;51.58;100975.16;5101808;28;20176;-60
2023/03/04 01:27:02;;;;;;;6.13;4.13;;;;;;;17.10;51.22;100969.59;5088864;28;20420;-59
2023/03/04 01:29:27;;;;;;;5.80;4.10;;;;;;;17.06;51.66;100963.75;5089312;28;20644;-59
2023/03/04 01:31:53;;;;;;;6.37;4.40;;;;;;;17.03;51.44;100969.34;5091734;28;20181;-60
2023/03/04 01:34:18;;;;;;;5.73;4.37;;;;;;;17.07;51.43;100968.28;5088810;28;20182;-59
2023/03/04 01:36:43;;;;;;;6.40;4.33;;;;;;;17.06;51.49;100965.78;5089156;28;20175;-59
2023/03/04 01:39:09;;;;;;;7.13;4.57;;;;;;;17.04;51.37;100962.44;5089977;28;20209;-60
2023/03/04 01:41:34;;;;;;;5.07;3.67;;;;;;;17.05;51.47;100967.78;5089985;28;20201;-60
2023/03/04 01:44:01;;;;;;;6.00;4.10;;;;;;;16.99;51.34;100960.66;5090669;28;20182;-60
2023/03/04 01:46:26;;;;;;;6.23;4.37;;;;;;;17.05;51.31;100961.28;5089586;28;20202;-60
2023/03/04 01:48:52;;;;;;;7.23;4.37;;;;;;;17.04;51.50;100956.72;5090351;28;20764;-59
2023/03/04 01:51:18;;;;;;;6.60;4.27;;;;;;;17.16;51.20;100965.31;5090824;28;20163;-59
2023/03/04 01:53:44;;;;;;;6.60;4.40;;;;;;;17.13;51.12;100951.75;5089810;28;20262;-60
2023/03/04 01:56:19;;;;;;;6.23;4.20;;;;;;;17.10;51.18;100961.84;5072393;28;20660;-59
2023/03/04 01:58:44;;;;;;;7.03;4.20;;;;;;;17.09;51.32;100963.06;5072443;28;20447;-59
2023/03/04 02:01:11;;;;;;;6.13;4.07;;;;;;;17.07;51.25;100962.59;5085098;28;20421;-60
2023/03/04 02:03:38;;;;;;;6.60;4.20;;;;;;;17.08;50.92;100972.81;5083697;28;20209;-60
2023/03/04 02:06:03;;;;;;;15.60;11.47;;;;;;;16.86;46.82;100970.38;5072145;28;20451;-59
2023/03/04 02:08:29;;;;;;;26.83;17.37;;;;;;;16.54;43.48;100965.56;5097054;28;20833;-59
2023/03/04 02:10:54;;;;;;;33.40;20.90;;;;;;;16.41;42.56;100966.69;5071149;28;20183;-59
2023/03/04 02:13:20;;;;;;;29.93;19.40;;;;;;;16.58;39.44;100962.81;5099623;28;20189;-60
2023/03/04 02:15:45;;;;;;;27.70;19.30;;;;;;;16.83;39.01;100956.84;5108892;28;20201;-59
2023/03/04 02:18:29;;;;;;;34.50;20.43;;;;;;;17.36;39.41;100961.53;5101510;28;20202;-59
2023/03/04 02:21:09;;;;;;;31.87;17.83;;;;;;;17.63;40.27;100955.94;5107210;28;20174;-59
2023/03/04 02:23:37;;;;;;;31.53;16.87;;;;;;;17.83;40.81;100963.53;5056677;28;20490;-59
2023/03/04 02:26:19;;;;;;;33.00;17.67;;;;;;;18.03;41.20;100956.81;5090397;28;20439;-60
2023/03/04 02:28:45;;;;;;;26.20;15.33;;;;;;;18.13;41.90;100946.88;5108362;28;20442;-60
2023/03/04 02:31:21;;;;;;;28.17;15.57;;;;;;;18.31;41.74;100949.06;5110576;28;20423;-59
2023/03/04 02:33:47;;;;;;;24.40;13.93;;;;;;;18.38;42.12;100949.31;5109210;28;20182;-60
2023/03/04 02:36:12;;;;;;;21.60;13.60;;;;;;;18.40;42.10;100952.63;5080405;28;20473;-59
2023/03/04 02:38:38;;;;;;;19.77;13.10;;;;;;;18.38;42.90;100949.31;5086828;28;20198;-59
2023/03/04 02:41:03;;;;;;;20.97;13.93;;;;;;;18.37;42.91;100949.69;5109366;28;20178;-60
2023/03/04 02:43:29;;;;;;;20.17;12.07;;;;;;;18.24;43.67;100946.00;5074771;28;20625;-59
2023/03/04 02:45:54;;;;;;;21.80;11.10;;;;;;;18.16;44.03;100943.31;5110131;28;20185;-60
2023/03/04 02:48:20;;;;;;;18.60;10.90;;;;;;;18.12;44.09;100950.94;5112421;28;20193;-59
2023/03/04 02:50:52;;;;;;;15.27;10.50;;;;;;;18.01;44.73;100952.66;5109874;28;20204;-60
2023/03/04 02:53:17;;;;;;;17.80;11.00;;;;;;;17.92;44.97;100949.09;5074337;28;20498;-60
2023/03/04 02:55:43;;;;;;;16.97;9.90;;;;;;;17.82;45.11;100946.75;5091476;28;20416;-59
2023/03/04 02:58:09;;;;;;;16.60;9.90;;;;;;;17.78;45.46;100952.34;5109802;28;20584;-60
2023/03/04 03:00:35;;;;;;;20.60;9.40;;;;;;;17.74;45.68;100948.53;5109322;28;20213;-60
2023/03/04 03:03:00;;;;;;;15.13;8.73;;;;;;;17.67;45.82;100944.63;5110228;28;20411;-60
2023/03/04 03:05:27;;;;;;;14.80;8.60;;;;;;;17.63;46.19;100943.69;5099693;28;20201;-59
2023/03/04 03:07:52;;;;;;;18.70;9.33;;;;;;;17.57;46.67;100940.25;5091257;28;20605;-60
2023/03/04 03:10:18;;;;;;;12.73;8.53;;;;;;;17.53;46.51;100933.59;5110216;28;20423;-60
2023/03/04 03:12:43;;;;;;;12.33;7.93;;;;;;;17.52;46.80;100943.34;5110342;28;20730;-59
2023/03/04 03:15:09;;;;;;;11.80;6.70;;;;;;;17.44;46.90;100929.19;5110711;28;20268;-59
2023/03/04 03:17:35;;;;;;;14.40;7.87;;;;;;;17.41;47.27;100939.28;5118799;28;20180;-60
2023/03/04 03:20:00;;;;;;;14.83;8.23;;;;;;;17.39;47.43;100944.53;5109572;28;20523;-60
2023/03/04 03:22:26;;;;;;;12.17;7.50;;;;;;;17.37;46.86;100932.63;5114322;27;20205;-60
2023/03/04 03:24:51;;;;;;;12.47;7.90;;;;;;;17.35;47.69;100934.19;5112326;28;20635;-60
2023/03/04 03:27:17;;;;;;;13.87;7.57;;;;;;;17.34;47.88;100929.63;5112988;28;20177;-59
2023/03/04 03:29:42;;;;;;;13.43;7.50;;;;;;;17.33;47.92;100933.69;5111871;28;20173;-60
2023/03/04 03:32:07;;;;;;;10.00;6.73;;;;;;;17.35;47.74;100932.13;5112934;28;20174;-60
2023/03/04 03:34:33;;;;;;;11.70;7.03;;;;;;;17.37;47.75;100931.78;5113253;28;20652;-60
2023/03/04 03:36:58;;;;;;;10.17;6.60;;;;;;;17.37;48.03;100932.63;5094045;28;20188;-60
2023/03/04 03:39:24;;;;;;;10.37;7.00;;;;;;;17.39;48.13;100938.84;5113513;28;20201;-60
2023/03/04 03:41:49;;;;;;;10.27;6.80;;;;;;;17.37;48.10;100935.50;5112629;28;20192;-60
2023/03/04 03:44:15;;;;;;;10.20;6.37;;;;;;;17.36;48.07;100930.94;5113303;28;20193;-60
2023/03/04 03:46:40;;;;;;;9.17;7.10;;;;;;;17.35;48.18;100940.69;5112435;28;20186;-60
2023/03/04 03:49:05;;;;;;;9.60;5.90;;;;;;;17.34;48.48;100941.06;5111529;28;20182;-60
2023/03/04 03:51:31;;;;;;;11.00;6.60;;;;;;;17.33;48.35;100933.69;5112181;28;20182;-60
2023/03/04 03:53:56;;;;;;;7.50;5.17;;;;;;;17.27;48.33;100941.69;5111321;28;20189;-60
2023/03/04 03:56:22;;;;;;;10.43;6.53;;;;;;;17.20;48.47;100934.91;5111624;28;20186;-60
2023/03/04 03:58:47;;;;;;;9.63;6.70;;;;;;;17.26;48.27;100939.16;5112253;28;20201;-60
2023/03/04 04:01:12;;;;;;;12.90;7.60;;;;;;;17.25;48.50;100937.50;5112237;28;20174;-60
2023/03/04 04:03:38;;;;;;;8.43;6.00;;;;;;;17.17;49.05;100945.00;5112409;28;20201;-59
2023/03/04 04:06:04;;;;;;;9.07;5.50;;;;;;;17.20;49.00;100941.41;5112788;28;20197;-60
2023/03/04 04:08:29;;;;;;;9.10;6.27;;;;;;;17.17;48.76;100939.28;5099345;28;20214;-60
2023/03/04 04:10:55;;;;;;;8.53;6.37;;;;;;;17.17;48.82;100947.00;5092182;28;20224;-59
2023/03/04 04:13:21;;;;;;;8.63;6.13;;;;;;;17.16;48.93;100945.34;5091978;28;20178;-60
2023/03/04 04:15:46;;;;;;;9.90;6.00;;;;;;;17.14;48.80;100947.72;5092964;28;20432;-60
2023/03/04 04:18:12;;;;;;;10.13;6.40;;;;;;;17.11;49.13;100945.59;5113063;28;20258;-60
2023/03/04 04:20:37;;;;;;;11.47;5.80;;;;;;;17.17;49.12;100939.28;5098885;28;20186;-60
2023/03/04 04:23:03;;;;;;;11.17;6.13;;;;;;;17.16;48.97;100937.59;5094516;28;20182;-59
2023/03/04 04:25:28;;;;;;;12.70;6.53;;;;;;;17.12;49.17;100944.41;5091534;28;20190;-60
2023/03/04 04:27:54;;;;;;;10.57;5.90;;;;;;;17.10;49.11;100941.88;5092351;28;20236;-59
2023/03/04 04:30:19;;;;;;;7.67;5.40;;;;;;;17.12;49.01;100938.69;5091180;28;20648;-60
2023/03/04 04:32:44;;;;;;;8.40;5.83;;;;;;;17.13;49.23;100946.06;5091668;28;20159;-60
2023/03/04 04:35:10;;;;;;;8.30;5.80;;;;;;;17.14;49.26;100942.84;5091149;28;20189;-60
2023/03/04 04:37:35;;;;;;;11.83;6.40;;;;;;;17.16;48.91;100946.16;5091286;28;20179;-59
2023/03/04 04:40:01;;;;;;;9.00;5.90;;;;;;;17.14;48.98;100934.28;5090714;28;20566;-60
2023/03/04 04:42:26;;;;;;;9.27;5.73;;;;;;;17.13;49.14;100946.91;5092704;28;20186;-60
2023/03/04 04:44:52;;;;;;;10.17;5.90;;;;;;;17.14;49.05;100942.84;5091008;28;20189;-60
2023/03/04 04:47:17;;;;;;;7.30;5.37;;;;;;;17.16;49.16;100954.72;5090318;28;20163;-60
2023/03/04 04:49:43;;;;;;;8.30;6.10;;;;;;;17.14;49.28;100953.41;5072492;28;20269;-60
2023/03/04 04:52:08;;;;;;;7.10;5.27;;;;;;;17.12;49.50;100962.34;5091575;28;20175;-60
2023/03/04 04:54:34;;;;;;;7.93;5.20;;;;;;;17.19;49.29;100956.03;5090438;28;20251;-60
2023/03/04 04:56:59;;;;;;;9.07;5.43;;;;;;;17.22;49.35;100956.19;5091739;28;20523;-60
2023/03/04 04:59:24;;;;;;;9.23;6.07;;;;;;;17.21;48.97;100957.34;5090663;28;20726;-60
2023/03/04 05:01:50;;;;;;;9.67;6.00;;;;;;;17.15;49.47;100944.50;5091542;28;20715;-60
2023/03/04 05:04:15;;;;;;;8.90;5.70;;;;;;;17.14;49.11;100954.25;5091159;28;20194;-60
2023/03/04 05:06:41;;;;;;;9.20;5.30;;;;;;;17.13;49.59;100952.59;5090588;28;20650;-60
2023/03/04 05:09:06;;;;;;;7.40;4.73;;;;;;;17.10;49.62;100956.16;5108908;28;20692;-60
2023/03/04 05:11:32;;;;;;;9.40;5.90;;;;;;;17.09;49.30;100954.50;5094869;28;20252;-60
2023/03/04 05:13:57;;;;;;;9.10;5.97;;;;;;;17.10;49.56;100955.34;5114517;27;20181;-60
2023/03/04 05:16:22;;;;;;;11.00;5.90;;;;;;;17.07;50.13;100948.31;5111727;28;20177;-60
2023/03/04 05:18:48;;;;;;;8.47;5.13;;;;;;;17.03;49.80;100952.22;5110550;28;20201;-60
2023/03/04 05:21:13;;;;;;;6.23;4.63;;;;;;;17.06;49.84;100960.91;5111599;28;20175;-60
2023/03/04 05:23:40;;;;;;;8.83;5.90;;;;;;;17.03;50.09;100955.06;5111401;28;20660;-60
2023/03/04 05:26:05;;;;;;;8.73;5.73;;;;;;;17.01;49.62;100955.44;5110798;28;20549;-60
2023/03/04 05:28:31;;;;;;;8.00;5.10;;;;;;;17.02;49.83;100967.69;5110616;28;20443;-60
2023/03/04 05:30:56;;;;;;;6.67;5.03;;;;;;;17.02;50.00;100965.66;5111139;28;20184;-59
2023/03/04 05:33:22;;;;;;;9.33;5.90;;;;;;;17.00;49.55;100958.66;5110888;28;20181;-59
2023/03/04 05:35:48;;;;;;;7.77;5.70;;;;;;;17.02;49.74;100968.53;5111642;28;20174;-60
2023/03/04 05:38:14;;;;;;;13.10;5.57;;;;;;;17.14;49.38;100971.38;5110340;28;20200;-59
2023/03/04 05:40:40;;;;;;;7.67;5.23;;;;;;;17.05;49.74;100978.41;5110860;28;20174;-60
2023/03/04 05:43:06;;;;;;;8.07;5.23;;;;;;;17.06;49.71;100980.88;5111093;28;20427;-60
2023/03/04 05:45:31;;;;;;;8.93;5.13;;;;;;;17.06;49.77;100980.06;5109132;28;20177;-59
2023/03/04 05:47:56;;;;;;;7.97;5.60;;;;;;;17.09;49.46;100982.19;5091527;28;20177;-60
2023/03/04 05:50:22;;;;;;;8.87;5.57;;;;;;;17.14;49.60;100984.81;5110407;28;20158;-59
2023/03/04 05:52:47;;;;;;;8.90;6.00;;;;;;;17.12;49.34;100987.19;5110213;28;20162;-60
2023/03/04 05:55:13;;;;;;;8.80;5.33;;;;;;;17.11;49.46;100988.38;5108916;28;20196;-59
2023/03/04 05:57:38;;;;;;;9.90;5.10;;;;;;;17.11;49.46;100994.09;5109862;28;20177;-59
2023/03/04 06:00:04;;;;;;;11.03;4.90;;;;;;;17.08;49.82;100983.38;5109258;28;20525;-59
2023/03/04 06:02:30;;;;;;;7.77;5.73;;;;;;;17.07;49.51;100993.97;5110804;28;20173;-60
2023/03/04 06:04:55;;;;;;;9.80;4.83;;;;;;;17.08;49.53;101001.34;5110442;28;20205;-59
2023/03/04 06:07:21;;;;;;;8.07;6.00;;;;;;;17.07;49.75;100998.81;5103571;28;20230;-60
2023/03/04 06:09:46;;;;;;;7.53;5.37;;;;;;;17.05;49.69;101012.63;5087807;28;20206;-59
2023/03/04 06:12:12;;;;;;;8.63;5.20;;;;;;;17.15;49.61;101006.47;5088202;28;20183;-59
2023/03/04 06:14:37;;;;;;;7.07;4.70;;;;;;;17.13;49.33;101009.66;5089657;28;20191;-59
2023/03/04 06:17:03;;;;;;;6.60;4.60;;;;;;;17.11;49.38;101014.06;5089855;28;20224;-59
2023/03/04 06:19:28;;;;;;;8.10;5.30;;;;;;;17.08;50.14;101009.88;5088685;28;20198;-59
2023/03/04 06:21:54;;;;;;;8.83;5.10;;;;;;;17.02;49.89;101017.03;5090283;28;20189;-59
2023/03/04 06:24:19;;;;;;;9.00;5.70;;;;;;;17.01;49.89;101018.19;5088901;28;20197;-59
2023/03/04 06:26:44;;;;;;;7.97;5.03;;;;;;;16.99;49.90;101026.25;5092369;28;20181;-59
2023/03/04 06:29:10;;;;;;;7.17;4.53;;;;;;;16.99;50.04;101020.56;5089240;28;20179;-60
2023/03/04 06:31:35;;;;;;;8.47;5.57;;;;;;;16.97;49.90;101022.94;5089642;28;20166;-60
2023/03/04 06:34:01;;;;;;;7.00;5.00;;;;;;;16.98;49.95;101018.06;5090029;28;20634;-59
2023/03/04 06:36:26;;;;;;;8.53;5.90;;;;;;;17.00;50.18;101021.41;5088478;28;20216;-59
2023/03/04 06:38:52;;;;;;;10.63;6.17;;;;;;;16.96;50.08;101021.25;5071193;28;20198;-59
2023/03/04 06:41:17;;;;;;;7.00;4.80;;;;;;;16.96;50.15;101018.41;5092148;28;20170;-59
2023/03/04 06:43:43;;;;;;;6.73;5.07;;;;;;;16.93;50.07;101021.97;5089590;28;20239;-60
2023/03/04 06:46:08;;;;;;;7.43;4.63;;;;;;;16.93;50.02;101021.13;5089039;28;20194;-59
2023/03/04 06:48:34;;;;;;;7.30;5.13;;;;;;;16.98;50.02;101018.91;5089885;28;20159;-59
2023/03/04 06:51:07;;;;;;;7.83;5.43;;;;;;;17.04;49.74;101019.50;5088855;28;20181;-60
2023/03/04 06:53:32;;;;;;;6.73;5.07;;;;;;;17.04;49.70;101028.06;5089438;28;20680;-59
2023/03/04 06:55:58;;;;;;;8.67;5.67;;;;;;;17.02;49.64;101019.03;5071139;28;20413;-59
2023/03/04 06:58:23;;;;;;;10.00;6.30;;;;;;;17.02;49.91;101022.72;5093207;28;20229;-59
2023/03/04 07:00:49;;;;;;;7.60;5.10;;;;;;;17.08;49.67;101027.00;5092489;28;20277;-59
2023/03/04 07:03:14;;;;;;;19.93;6.00;;;;;;;17.08;49.80;101029.84;5092512;28;20179;-59
2023/03/04 07:05:41;;;;;;;7.40;5.17;;;;;;;17.15;49.27;101035.00;5061474;28;20202;-60
2023/03/04 07:08:06;;;;;;;9.20;5.50;;;;;;;17.12;49.72;101039.38;5064560;28;20970;-60
2023/03/04 07:10:32;;;;;;;6.37;4.60;;;;;;;17.10;49.62;101032.38;5113841;28;20407;-58
2023/03/04 07:12:57;;;;;;;9.80;5.80;;;;;;;17.10;49.75;101038.06;5116432;27;20185;-58
2023/03/04 07:15:22;;;;;;;9.40;5.90;;;;;;;17.07;49.83;101041.63;5110131;28;20536;-59
2023/03/04 07:17:48;;;;;;;8.10;5.20;;;;;;;17.05;49.81;101044.81;5112587;27;20193;-59
2023/03/04 07:20:13;;;;;;;6.33;4.97;;;;;;;17.09;49.62;101048.63;5113450;28;20161;-59
2023/03/04 07:22:39;;;;;;;8.80;5.90;;;;;;;17.08;49.73;101057.53;5116067;27;20174;-59
2023/03/04 07:25:05;;;;;;;9.80;4.57;;;;;;;17.13;49.43;101043.91;5112213;28;20186;-58
2023/03/04 07:27:30;;;;;;;6.60;4.50;;;;;;;17.09;49.85;101053.50;5112856;28;20186;-60
2023/03/04 07:29:55;;;;;;;7.83;5.40;;;;;;;17.09;49.77;101059.19;5112781;28;20488;-59
2023/03/04 07:32:21;;;;;;;7.27;5.03;;;;;;;17.08;50.02;101063.25;5093278;27;20195;-58
2023/03/04 07:34:46;;;;;;;6.60;5.00;;;;;;;17.01;50.09;101048.75;5098390;28;20174;-59
2023/03/04 07:37:12;;;;;;;9.53;6.07;;;;;;;17.02;50.00;101068.38;5112482;28;20231;-59
2023/03/04 07:39:37;;;;;;;9.17;5.30;;;;;;;16.98;50.23;101064.53;5110830;28;20563;-59
2023/03/04 07:42:03;;;;;;;7.37;4.97;;;;;;;16.99;49.95;101066.19;5111585;28;20198;-59
2023/03/04 07:44:28;;;;;;;7.43;5.40;;;;;;;17.00;49.89;101065.00;5112243;28;20169;-59
2023/03/04 07:46:54;;;;;;;8.80;5.20;;;;;;;16.94;50.38;101077.84;5104168;28;20182;-58
2023/03/04 07:49:19;;;;;;;7.30;5.07;;;;;;;16.95;50.48;101070.94;5111245;28;20193;-58
2023/03/04 07:51:45;;;;;;;8.03;5.43;;;;;;;16.97;50.26;101074.28;5112309;28;20158;-59
2023/03/04 07:54:10;;;;;;;7.50;5.40;;;;;;;16.97;50.07;101070.59;5112049;28;20185;-59
2023/03/04 07:56:36;;;;;;;8.47;5.63;;;;;;;16.97;50.31;101074.28;5112800;28;20173;-59
2023/03/04 07:59:01;;;;;;;7.60;4.80;;;;;;;16.92;50.36;101083.06;5111823;28;20217;-58
2023/03/04 08:01:33;;;;;;;7.37;5.30;;;;;;;16.96;50.06;101078.31;5099970;28;20182;-59
2023/03/04 08:03:59;;;;;;;7.03;5.30;;;;;;;17.00;49.86;101079.28;5073604;28;20198;-58
2023/03/04 08:06:25;;;;;;;8.50;5.60;;;;;;;17.01;49.96;101082.97;5101211;28;20763;-58
2023/03/04 08:09:00;;;;;;;8.60;5.20;;;;;;;17.06;49.73;101077.84;5110776;28;20686;-58
2023/03/04 08:11:27;;;;;;;6.10;5.03;;;;;;;17.06;49.95;101086.41;5111956;28;20419;-58
2023/03/04 08:13:53;;;;;;;7.10;5.10;;;;;;;17.05;49.92;101093.31;5112126;28;20427;-58
2023/03/04 08:16:19;;;;;;;6.60;5.07;;;;;;;17.08;49.61;101086.06;5110975;27;20465;-59
2023/03/04 08:18:46;;;;;;;6.70;4.67;;;;;;;17.05;50.07;101086.78;5112663;28;20665;-58
2023/03/04 08:21:12;;;;;;;7.83;5.30;;;;;;;17.06;49.56;101088.44;5113704;27;20177;-58
2023/03/04 08:23:38;;;;;;;6.97;4.67;;;;;;;17.04;49.87;101090.81;5110544;28;20975;-58
2023/03/04 08:26:08;;;;;;;8.10;5.80;;;;;;;17.05;49.74;101090.47;5112231;28;20186;-59
2023/03/04 08:28:34;;;;;;;7.57;5.30;;;;;;;17.08;50.08;101100.34;5112439;28;20408;-59
2023/03/04 08:30:59;;;;;;;8.23;5.27;;;;;;;17.07;49.97;101098.66;5110125;28;20792;-59
2023/03/04 08:33:25;;;;;;;8.67;5.47;;;;;;;17.06;49.70;101097.81;5112221;28;20192;-59
2023/03/04 08:35:50;;;;;;;7.60;5.00;;;;;;;17.04;49.92;101105.91;5111748;28;20196;-59
2023/03/04 08:38:15;;;;;;;6.90;4.67;;;;;;;17.06;50.07;101106.38;5112545;28;20186;-59
2023/03/04 08:40:41;;;;;;;7.23;4.90;;;;;;;17.14;49.79;101108.31;5114618;27;20735;-59
2023/03/04 08:43:06;;;;;;;7.43;5.03;;;;;;;17.12;49.66;101104.16;5110996;28;20178;-59
2023/03/04 08:45:32;;;;;;;6.07;4.23;;;;;;;17.11;49.91;101102.50;5110214;28;20194;-59
2023/03/04 08:47:57;;;;;;;6.50;4.83;;;;;;;17.13;49.99;101111.53;5110254;28;20181;-59
2023/03/04 08:50:23;;;;;;;8.20;5.23;;;;;;;17.08;49.85;101104.03;5111398;28;20166;-59
2023/03/04 08:52:48;;;;;;;5.90;4.70;;;;;;;17.04;50.13;101105.91;5110876;28;20162;-58
2023/03/04 08:55:14;;;;;;;7.60;4.70;;;;;;;17.04;50.00;101113.63;5109476;28;20178;-59
2023/03/04 08:57:39;;;;;;;7.67;5.40;;;;;;;17.02;50.41;101099.75;5109326;28;20636;-59
2023/03/04 09:00:05;;;;;;;7.00;4.57;;;;;;;17.00;50.29;101102.09;5109330;28;20579;-59
2023/03/04 09:02:31;;;;;;;6.80;4.70;;;;;;;17.03;50.34;101098.53;5111205;28;20181;-59
2023/03/04 09:04:56;;;;;;;10.40;4.67;;;;;;;17.04;50.15;101102.22;5103837;28;20969;-59
2023/03/04 09:07:22;;;;;;;7.80;4.90;;;;;;;17.06;50.30;101099.88;5108708;28;20294;-59
2023/03/04 09:09:48;;;;;;;6.60;4.80;;;;;;;17.01;50.15;101098.03;5111491;27;20228;-60
2023/03/04 09:12:13;;;;;;;7.47;4.60;;;;;;;17.03;50.34;101104.25;5110840;28;20427;-59
2023/03/04 09:14:38;;;;;;;7.03;4.97;;;;;;;17.06;50.18;101100.69;5110192;28;20185;-59
2023/03/04 09:17:04;;;;;;;7.50;4.97;;;;;;;17.04;50.37;101094.50;5100054;27;20193;-59
2023/03/04 09:19:30;;;;;;;7.90;4.97;;;;;;;16.96;50.16;101101.13;5110676;27;20284;-58
2023/03/04 09:21:55;;;;;;;6.80;4.70;;;;;;;17.02;50.32;101101.75;5090410;28;20167;-59
2023/03/04 09:24:21;;;;;;;11.40;5.30;;;;;;;17.10;50.00;101098.78;5100217;28;20262;-59
2023/03/04 09:26:50;;;;;;;7.53;4.83;;;;;;;17.08;50.13;101106.88;5113010;27;20181;-59
2023/03/04 09:29:15;;;;;;;6.93;4.57;;;;;;;17.04;50.07;101105.91;5108446;28;20157;-58
2023/03/04 09:31:41;;;;;;;7.40;4.97;;;;;;;17.09;50.01;101105.69;5103531;27;20439;-59
2023/03/04 09:34:06;;;;;;;6.00;5.00;;;;;;;17.12;50.24;101095.59;5108840;28;20188;-58
2023/03/04 09:36:32;;;;;;;8.00;5.13;;;;;;;17.13;50.00;101100.97;5108955;28;20189;-58
2023/03/04 09:39:01;;;;;;;6.17;4.17;;;;;;;17.14;49.98;101105.47;5107992;28;20194;-58
2023/03/04 09:41:40;;;;;;;7.10;5.10;;;;;;;17.15;49.95;101104.28;5101732;28;20883;-58
2023/03/04 09:44:27;;;;;;;5.30;4.17;;;;;;;17.11;50.02;101100.47;5108865;28;20495;-58
2023/03/04 09:46:52;;;;;;;7.10;4.93;;;;;;;17.12;50.11;101105.00;5107616;28;20463;-59
2023/03/04 09:49:18;;;;;;;5.67;4.20;;;;;;;17.10;50.31;101110.22;5108904;28;20478;-59
2023/03/04 09:51:54;;;;;;;6.73;4.97;;;;;;;17.11;50.02;101106.16;5110533;28;20589;-59
2023/03/04 09:54:22;;;;;;;7.93;4.57;;;;;;;17.08;50.05;101104.03;5109852;28;20466;-59
2023/03/04 09:56:48;;;;;;;6.60;4.67;;;;;;;17.11;50.24;101111.88;5108683;28;20431;-59
2023/03/04 09:59:23;;;;;;;7.60;4.70;;;;;;;17.10;49.83;101112.25;5107902;28;20469;-58
2023/03/04 10:01:58;;;;;;;6.83;5.00;;;;;;;17.12;50.40;101115.56;5106672;28;20985;-58
2023/03/04 10:04:34;;;;;;;6.40;5.00;;;;;;;17.16;50.10;101114.50;5108850;28;20442;-58
2023/03/04 10:07:01;;;;;;;7.10;4.80;;;;;;;17.15;50.06;101109.97;5107000;28;20886;-58
2023/03/04 10:09:46;;;;;;;7.57;5.00;;;;;;;17.10;50.00;101113.06;5107968;28;20443;-59
2023/03/04 10:12:13;;;;;;;6.10;4.40;;;;;;;17.11;50.19;101116.75;5109393;28;20420;-59
2023/03/04 10:14:50;;;;;;;5.67;4.30;;;;;;;17.08;50.25;101109.75;5108163;28;20887;-59
2023/03/04 10:17:43;;;;;;;8.50;5.00;;;;;;;17.08;50.20;101104.03;5121893;27;20417;-59
2023/03/04 10:20:08;;;;;;;7.30;4.93;;;;;;;17.08;50.41;101106.88;5121775;27;20462;-59
2023/03/04 10:22:41;;;;;;;6.17;4.30;;;;;;;17.10;50.31;101100.84;5113383;27;20407;-59
2023/03/04 10:25:16;;;;;;;6.27;4.73;;;;;;;17.09;50.44;101094.28;5107281;27;20184;-59
2023/03/04 10:27:42;;;;;;;7.30;5.30;;;;;;;17.13;50.11;101105.81;5110152;28;20506;-59
2023/03/04 10:30:45;;;;;;;6.80;4.63;;;;;;;17.09;50.15;101102.84;5108730;28;20396;-59
2023/03/04 10:33:24;;;;;;;7.00;5.07;;;;;;;17.08;50.41;101092.63;5108736;28;20739;-59
2023/03/04 10:36:01;;;;;;;7.20;4.97;;;;;;;17.07;50.23;101093.81;5107709;28;20415;-59
2023/03/04 10:38:29;;;;;;;7.17;4.50;;;;;;;17.09;50.38;101097.13;5106656;28;20447;-59
2023/03/04 10:40:54;;;;;;;6.60;4.30;;;;;;;17.11;50.03;101100.47;5106323;28;20514;-59
2023/03/04 10:43:20;;;;;;;6.97;5.00;;;;;;;17.22;49.94;101101.72;5090756;28;20431;-59
2023/03/04 10:45:46;;;;;;;7.77;4.90;;;;;;;17.15;50.40;101089.19;5108906;28;20246;-60
2023/03/04 10:48:27;;;;;;;13.67;8.97;;;;;;;17.05;49.36;101098.22;5105917;28;20190;-59
2023/03/04 10:50:53;;;;;;;35.77;20.63;;;;;;;16.77;46.80;101095.13;5089300;28;20169;-59
2023/03/04 10:53:32;;;;;;;51.13;24.50;;;;;;;16.76;45.71;101090.59;5097965;28;20456;-59
2023/03/04 10:55:58;;;;;;;49.00;27.60;;;;;;;16.88;43.98;101092.66;5107223;28;20989;-60
2023/03/04 10:58:23;;;;;;;57.33;28.03;;;;;;;17.01;43.19;101086.63;5107724;28;20509;-58
2023/03/04 11:01:09;;;;;;;47.93;25.83;;;;;;;17.13;43.77;101091.56;5109843;28;20220;-58
2023/03/04 11:03:37;;;;;;;47.67;26.70;;;;;;;17.46;44.03;101081.78;5107400;28;20217;-58
2023/03/04 11:06:09;;;;;;;53.07;25.40;;;;;;;17.99;43.91;101092.16;5108076;28;20446;-59
2023/03/04 11:08:35;;;;;;;42.40;22.17;;;;;;;18.25;44.13;101087.72;5108412;28;20531;-58
2023/03/04 11:11:00;;;;;;;43.73;22.90;;;;;;;18.27;43.91;101076.75;5108161;28;20919;-59
2023/03/04 11:13:26;;;;;;;54.97;23.93;;;;;;;18.29;44.43;101074.38;5116609;28;20193;-59
2023/03/04 11:16:04;;;;;;;40.77;22.67;;;;;;;18.31;44.55;101071.16;5094597;28;20645;-59
2023/03/04 11:18:40;;;;;;;39.90;20.97;;;;;;;18.35;44.88;101072.97;5091488;28;20661;-60
2023/03/04 11:21:06;;;;;;;40.30;21.30;;;;;;;18.01;45.41;101069.78;5100920;28;20403;-59